sensor_id;sensor_type;location;lat;lon;timestamp;P1;durP1;ratioP1;P2;durP2;ratioP2
42168;SDS011;27838;43.858;25.974;2023-02-15T00:02:00;33.47;;;20.20;;
42168;SDS011;27838;43.858;25.974;2023-02-15T00:04:26;33.08;;;20.50;;
42168;SDS011;27838;43.858;25.974;2023-02-15T00:07:11;30.38;;;20.98;;
42168;SDS011;27838;43.858;25.974;2023-02-15T00:09:38;32.42;;;19.58;;
42168;SDS011;27838;43.858;25.974;2023-02-15T00:12:05;32.22;;;20.23;;
42168;SDS011;27838;43.858;25.974;2023-02-15T00:14:31;31.45;;;20.02;;
42168;SDS011;27838;43.858;25.974;2023-02-15T00:16:58;32.35;;;19.80;;
42168;SDS011;27838;43.858;25.974;2023-02-15T00:19:24;33.03;;;20.17;;
42168;SDS011;27838;43.858;25.974;2023-02-15T00:21:51;35.80;;;19.50;;
42168;SDS011;27838;43.858;25.974;2023-02-15T00:24:18;33.95;;;19.70;;
42168;SDS011;27838;43.858;25.974;2023-02-15T00:26:45;31.25;;;18.77;;
42168;SDS011;27838;43.858;25.974;2023-02-15T00:29:13;30.67;;;18.55;;
42168;SDS011;27838;43.858;25.974;2023-02-15T00:31:41;32.40;;;17.80;;
42168;SDS011;27838;43.858;25.974;2023-02-15T00:34:13;32.67;;;17.80;;
42168;SDS011;27838;43.858;25.974;2023-02-15T00:36:47;24.65;;;17.40;;
42168;SDS011;27838;43.858;25.974;2023-02-15T00:39:14;27.55;;;17.90;;
42168;SDS011;27838;43.858;25.974;2023-02-15T00:41:42;29.73;;;18.58;;
42168;SDS011;27838;43.858;25.974;2023-02-15T00:44:09;27.15;;;16.88;;
42168;SDS011;27838;43.858;25.974;2023-02-15T00:46:36;29.27;;;17.10;;
42168;SDS011;27838;43.858;25.974;2023-02-15T00:49:03;29.48;;;17.40;;
42168;SDS011;27838;43.858;25.974;2023-02-15T00:51:30;29.70;;;17.45;;
42168;SDS011;27838;43.858;25.974;2023-02-15T00:53:57;29.63;;;17.45;;
42168;SDS011;27838;43.858;25.974;2023-02-15T00:56:24;29.25;;;17.73;;
42168;SDS011;27838;43.858;25.974;2023-02-15T00:58:50;32.95;;;19.45;;
42168;SDS011;27838;43.858;25.974;2023-02-15T01:01:18;24.42;;;16.67;;
42168;SDS011;27838;43.858;25.974;2023-02-15T01:03:46;26.52;;;16.85;;
42168;SDS011;27838;43.858;25.974;2023-02-15T01:06:14;29.95;;;17.45;;
42168;SDS011;27838;43.858;25.974;2023-02-15T01:08:41;27.50;;;17.38;;
42168;SDS011;27838;43.858;25.974;2023-02-15T01:11:10;30.35;;;18.00;;
42168;SDS011;27838;43.858;25.974;2023-02-15T01:13:38;29.95;;;18.05;;
42168;SDS011;27838;43.858;25.974;2023-02-15T01:16:05;26.10;;;16.48;;
42168;SDS011;27838;43.858;25.974;2023-02-15T01:18:32;30.90;;;16.98;;
42168;SDS011;27838;43.858;25.974;2023-02-15T01:20:59;26.88;;;16.27;;
42168;SDS011;27838;43.858;25.974;2023-02-15T01:23:26;28.23;;;17.42;;
42168;SDS011;27838;43.858;25.974;2023-02-15T01:25:52;27.30;;;16.83;;
42168;SDS011;27838;43.858;25.974;2023-02-15T01:28:19;31.75;;;20.73;;
42168;SDS011;27838;43.858;25.974;2023-02-15T01:30:45;29.10;;;16.60;;
42168;SDS011;27838;43.858;25.974;2023-02-15T01:33:12;30.20;;;18.00;;
42168;SDS011;27838;43.858;25.974;2023-02-15T01:35:42;26.60;;;17.20;;
42168;SDS011;27838;43.858;25.974;2023-02-15T01:38:10;26.55;;;16.75;;
42168;SDS011;27838;43.858;25.974;2023-02-15T01:40:37;26.80;;;17.67;;
42168;SDS011;27838;43.858;25.974;2023-02-15T01:43:11;29.95;;;17.23;;
42168;SDS011;27838;43.858;25.974;2023-02-15T01:45:38;27.83;;;17.33;;
42168;SDS011;27838;43.858;25.974;2023-02-15T01:50:54;35.17;;;17.20;;
42168;SDS011;27838;43.858;25.974;2023-02-15T01:55:54;29.65;;;17.50;;
42168;SDS011;27838;43.858;25.974;2023-02-15T01:58:24;30.23;;;18.23;;
42168;SDS011;27838;43.858;25.974;2023-02-15T02:00:54;33.30;;;20.02;;
42168;SDS011;27838;43.858;25.974;2023-02-15T02:04:08;31.42;;;18.77;;
42168;SDS011;27838;43.858;25.974;2023-02-15T02:06:32;30.73;;;18.40;;
42168;SDS011;27838;43.858;25.974;2023-02-15T02:09:00;31.55;;;19.05;;
42168;SDS011;27838;43.858;25.974;2023-02-15T02:11:28;28.58;;;17.75;;
42168;SDS011;27838;43.858;25.974;2023-02-15T02:13:54;28.55;;;18.67;;
42168;SDS011;27838;43.858;25.974;2023-02-15T02:16:26;27.77;;;18.38;;
42168;SDS011;27838;43.858;25.974;2023-02-15T02:27:12;30.67;;;17.98;;
42168;SDS011;27838;43.858;25.974;2023-02-15T02:33:11;30.58;;;18.75;;
42168;SDS011;27838;43.858;25.974;2023-02-15T02:36:06;30.77;;;19.35;;
42168;SDS011;27838;43.858;25.974;2023-02-15T02:44:43;30.38;;;17.67;;
42168;SDS011;27838;43.858;25.974;2023-02-15T02:47:22;27.63;;;18.08;;
42168;SDS011;27838;43.858;25.974;2023-02-15T02:50:00;32.78;;;17.90;;
42168;SDS011;27838;43.858;25.974;2023-02-15T02:52:44;31.38;;;18.65;;
42168;SDS011;27838;43.858;25.974;2023-02-15T03:00:51;32.88;;;19.75;;
42168;SDS011;27838;43.858;25.974;2023-02-15T03:03:20;30.02;;;19.55;;
42168;SDS011;27838;43.858;25.974;2023-02-15T03:05:53;32.25;;;20.17;;
42168;SDS011;27838;43.858;25.974;2023-02-15T03:08:23;31.88;;;19.42;;
42168;SDS011;27838;43.858;25.974;2023-02-15T03:10:55;35.75;;;21.60;;
42168;SDS011;27838;43.858;25.974;2023-02-15T03:13:24;36.92;;;21.77;;
42168;SDS011;27838;43.858;25.974;2023-02-15T03:15:51;46.05;;;21.98;;
42168;SDS011;27838;43.858;25.974;2023-02-15T03:18:37;31.55;;;20.65;;
42168;SDS011;27838;43.858;25.974;2023-02-15T03:21:09;34.30;;;19.65;;
42168;SDS011;27838;43.858;25.974;2023-02-15T03:23:48;34.33;;;21.17;;
42168;SDS011;27838;43.858;25.974;2023-02-15T03:26:19;40.75;;;23.23;;
42168;SDS011;27838;43.858;25.974;2023-02-15T03:28:47;39.47;;;23.42;;
42168;SDS011;27838;43.858;25.974;2023-02-15T03:31:17;32.25;;;20.45;;
42168;SDS011;27838;43.858;25.974;2023-02-15T03:33:50;120.38;;;30.00;;
42168;SDS011;27838;43.858;25.974;2023-02-15T03:36:39;47.47;;;23.50;;
42168;SDS011;27838;43.858;25.974;2023-02-15T03:39:14;37.67;;;22.27;;
42168;SDS011;27838;43.858;25.974;2023-02-15T03:42:32;34.85;;;21.23;;
42168;SDS011;27838;43.858;25.974;2023-02-15T03:47:36;33.28;;;21.17;;
42168;SDS011;27838;43.858;25.974;2023-02-15T03:50:09;40.95;;;22.88;;
42168;SDS011;27838;43.858;25.974;2023-02-15T03:52:54;33.92;;;20.75;;
42168;SDS011;27838;43.858;25.974;2023-02-15T03:55:23;37.05;;;22.42;;
42168;SDS011;27838;43.858;25.974;2023-02-15T03:57:50;31.80;;;20.45;;
42168;SDS011;27838;43.858;25.974;2023-02-15T04:00:35;32.75;;;20.98;;
42168;SDS011;27838;43.858;25.974;2023-02-15T04:03:32;34.22;;;21.20;;
42168;SDS011;27838;43.858;25.974;2023-02-15T04:06:05;36.85;;;22.63;;
42168;SDS011;27838;43.858;25.974;2023-02-15T04:08:31;33.78;;;21.02;;
42168;SDS011;27838;43.858;25.974;2023-02-15T04:11:12;38.00;;;22.60;;
42168;SDS011;27838;43.858;25.974;2023-02-15T04:13:39;34.63;;;21.40;;
42168;SDS011;27838;43.858;25.974;2023-02-15T04:16:06;36.67;;;22.10;;
42168;SDS011;27838;43.858;25.974;2023-02-15T04:18:36;40.03;;;22.55;;
42168;SDS011;27838;43.858;25.974;2023-02-15T04:21:24;39.00;;;23.50;;
42168;SDS011;27838;43.858;25.974;2023-02-15T04:24:11;35.38;;;22.05;;
42168;SDS011;27838;43.858;25.974;2023-02-15T04:26:55;36.72;;;22.60;;
42168;SDS011;27838;43.858;25.974;2023-02-15T04:29:22;38.42;;;22.80;;
42168;SDS011;27838;43.858;25.974;2023-02-15T04:31:51;33.65;;;21.02;;
42168;SDS011;27838;43.858;25.974;2023-02-15T04:34:18;35.42;;;22.63;;
42168;SDS011;27838;43.858;25.974;2023-02-15T04:36:45;34.05;;;22.33;;
42168;SDS011;27838;43.858;25.974;2023-02-15T04:39:12;36.10;;;23.33;;
42168;SDS011;27838;43.858;25.974;2023-02-15T04:41:40;35.67;;;21.88;;
42168;SDS011;27838;43.858;25.974;2023-02-15T04:44:07;37.33;;;22.80;;
42168;SDS011;27838;43.858;25.974;2023-02-15T04:46:33;34.63;;;20.88;;
42168;SDS011;27838;43.858;25.974;2023-02-15T04:49:00;35.05;;;21.77;;
42168;SDS011;27838;43.858;25.974;2023-02-15T04:51:27;38.65;;;22.38;;
42168;SDS011;27838;43.858;25.974;2023-02-15T04:53:54;36.47;;;22.83;;
42168;SDS011;27838;43.858;25.974;2023-02-15T04:56:21;35.75;;;22.00;;
42168;SDS011;27838;43.858;25.974;2023-02-15T04:58:48;34.15;;;22.05;;
42168;SDS011;27838;43.858;25.974;2023-02-15T05:01:15;34.72;;;22.70;;
42168;SDS011;27838;43.858;25.974;2023-02-15T05:03:41;33.45;;;21.25;;
42168;SDS011;27838;43.858;25.974;2023-02-15T05:06:08;42.30;;;23.48;;
42168;SDS011;27838;43.858;25.974;2023-02-15T05:08:34;34.35;;;21.70;;
42168;SDS011;27838;43.858;25.974;2023-02-15T05:11:01;38.40;;;22.67;;
42168;SDS011;27838;43.858;25.974;2023-02-15T05:13:27;35.60;;;22.55;;
42168;SDS011;27838;43.858;25.974;2023-02-15T05:15:55;37.45;;;22.83;;
42168;SDS011;27838;43.858;25.974;2023-02-15T05:18:21;35.30;;;23.17;;
42168;SDS011;27838;43.858;25.974;2023-02-15T05:20:48;35.60;;;23.42;;
42168;SDS011;27838;43.858;25.974;2023-02-15T05:23:15;40.33;;;24.25;;
42168;SDS011;27838;43.858;25.974;2023-02-15T05:25:46;38.30;;;23.60;;
42168;SDS011;27838;43.858;25.974;2023-02-15T05:28:31;40.10;;;23.90;;
42168;SDS011;27838;43.858;25.974;2023-02-15T05:31:18;42.10;;;24.95;;
42168;SDS011;27838;43.858;25.974;2023-02-15T05:33:44;37.03;;;23.65;;
42168;SDS011;27838;43.858;25.974;2023-02-15T05:36:11;47.47;;;24.67;;
42168;SDS011;27838;43.858;25.974;2023-02-15T05:38:38;46.35;;;24.50;;
42168;SDS011;27838;43.858;25.974;2023-02-15T05:41:06;36.70;;;23.70;;
42168;SDS011;27838;43.858;25.974;2023-02-15T05:43:33;42.30;;;24.13;;
42168;SDS011;27838;43.858;25.974;2023-02-15T05:46:00;40.13;;;24.40;;
42168;SDS011;27838;43.858;25.974;2023-02-15T05:48:27;38.50;;;22.90;;
42168;SDS011;27838;43.858;25.974;2023-02-15T05:51:00;37.60;;;23.58;;
42168;SDS011;27838;43.858;25.974;2023-02-15T05:53:38;41.03;;;24.73;;
42168;SDS011;27838;43.858;25.974;2023-02-15T05:56:06;36.70;;;23.55;;
42168;SDS011;27838;43.858;25.974;2023-02-15T05:58:39;39.72;;;23.08;;
42168;SDS011;27838;43.858;25.974;2023-02-15T06:01:16;33.92;;;21.95;;
42168;SDS011;27838;43.858;25.974;2023-02-15T06:03:46;36.22;;;22.77;;
42168;SDS011;27838;43.858;25.974;2023-02-15T06:06:13;36.17;;;23.58;;
42168;SDS011;27838;43.858;25.974;2023-02-15T06:08:40;37.60;;;22.65;;
42168;SDS011;27838;43.858;25.974;2023-02-15T06:11:06;53.17;;;24.98;;
42168;SDS011;27838;43.858;25.974;2023-02-15T06:13:34;42.08;;;24.33;;
42168;SDS011;27838;43.858;25.974;2023-02-15T06:16:00;34.78;;;22.98;;
42168;SDS011;27838;43.858;25.974;2023-02-15T06:18:27;36.30;;;22.75;;
42168;SDS011;27838;43.858;25.974;2023-02-15T06:20:54;36.25;;;23.75;;
42168;SDS011;27838;43.858;25.974;2023-02-15T06:23:20;33.75;;;23.20;;
42168;SDS011;27838;43.858;25.974;2023-02-15T06:25:47;39.00;;;23.88;;
42168;SDS011;27838;43.858;25.974;2023-02-15T06:28:13;38.08;;;23.08;;
42168;SDS011;27838;43.858;25.974;2023-02-15T06:30:40;39.63;;;23.33;;
42168;SDS011;27838;43.858;25.974;2023-02-15T06:33:06;34.47;;;23.92;;
42168;SDS011;27838;43.858;25.974;2023-02-15T06:35:33;38.28;;;24.35;;
42168;SDS011;27838;43.858;25.974;2023-02-15T06:37:59;35.85;;;22.90;;
42168;SDS011;27838;43.858;25.974;2023-02-15T06:40:26;48.78;;;29.95;;
42168;SDS011;27838;43.858;25.974;2023-02-15T06:42:52;62.75;;;30.23;;
42168;SDS011;27838;43.858;25.974;2023-02-15T06:45:19;51.13;;;30.75;;
42168;SDS011;27838;43.858;25.974;2023-02-15T06:47:45;43.47;;;27.60;;
42168;SDS011;27838;43.858;25.974;2023-02-15T06:50:12;36.10;;;24.33;;
42168;SDS011;27838;43.858;25.974;2023-02-15T06:52:38;40.00;;;24.02;;
42168;SDS011;27838;43.858;25.974;2023-02-15T06:55:05;36.92;;;23.90;;
42168;SDS011;27838;43.858;25.974;2023-02-15T06:57:32;38.55;;;24.75;;
42168;SDS011;27838;43.858;25.974;2023-02-15T06:59:59;42.05;;;25.45;;
42168;SDS011;27838;43.858;25.974;2023-02-15T07:02:26;37.58;;;24.38;;
42168;SDS011;27838;43.858;25.974;2023-02-15T07:04:53;37.20;;;23.20;;
42168;SDS011;27838;43.858;25.974;2023-02-15T07:07:19;39.35;;;25.05;;
42168;SDS011;27838;43.858;25.974;2023-02-15T07:09:46;37.70;;;23.83;;
42168;SDS011;27838;43.858;25.974;2023-02-15T07:12:12;40.05;;;24.92;;
42168;SDS011;27838;43.858;25.974;2023-02-15T07:14:57;39.70;;;25.40;;
42168;SDS011;27838;43.858;25.974;2023-02-15T07:17:23;44.65;;;26.67;;
42168;SDS011;27838;43.858;25.974;2023-02-15T07:19:53;41.28;;;26.05;;
42168;SDS011;27838;43.858;25.974;2023-02-15T07:22:20;46.35;;;25.58;;
42168;SDS011;27838;43.858;25.974;2023-02-15T07:24:46;46.42;;;25.70;;
42168;SDS011;27838;43.858;25.974;2023-02-15T07:27:14;43.90;;;26.65;;
42168;SDS011;27838;43.858;25.974;2023-02-15T07:29:40;44.00;;;26.08;;
42168;SDS011;27838;43.858;25.974;2023-02-15T07:32:07;39.83;;;25.90;;
42168;SDS011;27838;43.858;25.974;2023-02-15T07:34:33;44.40;;;26.50;;
42168;SDS011;27838;43.858;25.974;2023-02-15T07:37:00;39.78;;;26.48;;
42168;SDS011;27838;43.858;25.974;2023-02-15T07:39:26;42.30;;;26.40;;
42168;SDS011;27838;43.858;25.974;2023-02-15T07:41:53;43.33;;;26.30;;
42168;SDS011;27838;43.858;25.974;2023-02-15T07:44:19;45.08;;;26.73;;
42168;SDS011;27838;43.858;25.974;2023-02-15T07:46:46;43.72;;;25.05;;
42168;SDS011;27838;43.858;25.974;2023-02-15T07:49:12;41.22;;;26.48;;
42168;SDS011;27838;43.858;25.974;2023-02-15T07:51:39;49.70;;;27.52;;
42168;SDS011;27838;43.858;25.974;2023-02-15T07:54:06;45.25;;;27.55;;
42168;SDS011;27838;43.858;25.974;2023-02-15T07:56:33;43.80;;;26.20;;
42168;SDS011;27838;43.858;25.974;2023-02-15T07:58:59;42.85;;;25.27;;
42168;SDS011;27838;43.858;25.974;2023-02-15T08:01:31;52.38;;;27.02;;
42168;SDS011;27838;43.858;25.974;2023-02-15T08:04:00;44.20;;;26.10;;
42168;SDS011;27838;43.858;25.974;2023-02-15T08:06:28;45.15;;;26.98;;
42168;SDS011;27838;43.858;25.974;2023-02-15T08:08:56;45.90;;;27.90;;
42168;SDS011;27838;43.858;25.974;2023-02-15T08:11:23;48.25;;;29.25;;
42168;SDS011;27838;43.858;25.974;2023-02-15T08:13:54;46.13;;;28.80;;
42168;SDS011;27838;43.858;25.974;2023-02-15T08:16:38;45.13;;;28.15;;
42168;SDS011;27838;43.858;25.974;2023-02-15T08:19:11;35.17;;;22.38;;
42168;SDS011;27838;43.858;25.974;2023-02-15T08:22:02;38.67;;;24.50;;
42168;SDS011;27838;43.858;25.974;2023-02-15T08:24:33;39.95;;;24.50;;
42168;SDS011;27838;43.858;25.974;2023-02-15T08:27:02;42.17;;;27.35;;
42168;SDS011;27838;43.858;25.974;2023-02-15T08:29:30;36.92;;;23.23;;
42168;SDS011;27838;43.858;25.974;2023-02-15T08:31:58;40.10;;;24.20;;
42168;SDS011;27838;43.858;25.974;2023-02-15T08:34:31;38.25;;;23.48;;
42168;SDS011;27838;43.858;25.974;2023-02-15T08:36:59;39.13;;;21.95;;
42168;SDS011;27838;43.858;25.974;2023-02-15T08:39:25;35.05;;;23.02;;
42168;SDS011;27838;43.858;25.974;2023-02-15T08:41:52;35.53;;;23.77;;
42168;SDS011;27838;43.858;25.974;2023-02-15T08:44:19;33.35;;;22.90;;
42168;SDS011;27838;43.858;25.974;2023-02-15T08:46:48;36.10;;;23.45;;
42168;SDS011;27838;43.858;25.974;2023-02-15T08:49:16;35.03;;;21.58;;
42168;SDS011;27838;43.858;25.974;2023-02-15T08:51:44;34.03;;;23.20;;
42168;SDS011;27838;43.858;25.974;2023-02-15T08:54:12;34.75;;;23.27;;
42168;SDS011;27838;43.858;25.974;2023-02-15T08:56:41;37.58;;;22.67;;
42168;SDS011;27838;43.858;25.974;2023-02-15T08:59:13;29.58;;;21.30;;
42168;SDS011;27838;43.858;25.974;2023-02-15T09:01:42;35.47;;;21.67;;
42168;SDS011;27838;43.858;25.974;2023-02-15T09:04:08;31.60;;;21.23;;
42168;SDS011;27838;43.858;25.974;2023-02-15T09:06:36;31.85;;;21.88;;
42168;SDS011;27838;43.858;25.974;2023-02-15T09:09:04;35.17;;;22.27;;
42168;SDS011;27838;43.858;25.974;2023-02-15T09:11:33;36.92;;;24.13;;
42168;SDS011;27838;43.858;25.974;2023-02-15T09:14:02;33.55;;;23.50;;
42168;SDS011;27838;43.858;25.974;2023-02-15T09:16:36;37.13;;;24.10;;
42168;SDS011;27838;43.858;25.974;2023-02-15T09:19:04;42.53;;;23.95;;
42168;SDS011;27838;43.858;25.974;2023-02-15T09:21:31;36.50;;;23.20;;
42168;SDS011;27838;43.858;25.974;2023-02-15T09:24:04;34.50;;;21.52;;
42168;SDS011;27838;43.858;25.974;2023-02-15T09:26:33;33.20;;;21.35;;
42168;SDS011;27838;43.858;25.974;2023-02-15T09:29:01;37.15;;;22.75;;
42168;SDS011;27838;43.858;25.974;2023-02-15T09:31:33;38.78;;;22.23;;
42168;SDS011;27838;43.858;25.974;2023-02-15T09:34:03;33.92;;;21.98;;
42168;SDS011;27838;43.858;25.974;2023-02-15T09:36:31;31.52;;;21.55;;
42168;SDS011;27838;43.858;25.974;2023-02-15T09:44:38;29.58;;;20.83;;
42168;SDS011;27838;43.858;25.974;2023-02-15T09:58:57;29.30;;;19.75;;
42168;SDS011;27838;43.858;25.974;2023-02-15T10:12:43;27.95;;;19.13;;
42168;SDS011;27838;43.858;25.974;2023-02-15T10:15:48;40.45;;;20.35;;
42168;SDS011;27838;43.858;25.974;2023-02-15T10:26:21;28.15;;;19.00;;
42168;SDS011;27838;43.858;25.974;2023-02-15T10:28:58;36.42;;;20.60;;
42168;SDS011;27838;43.858;25.974;2023-02-15T10:42:49;31.85;;;19.23;;
42168;SDS011;27838;43.858;25.974;2023-02-15T10:53:37;38.03;;;19.45;;
42168;SDS011;27838;43.858;25.974;2023-02-15T11:05:34;35.70;;;19.50;;
42168;SDS011;27838;43.858;25.974;2023-02-15T11:08:20;27.33;;;18.63;;
42168;SDS011;27838;43.858;25.974;2023-02-15T11:10:54;33.70;;;19.30;;
42168;SDS011;27838;43.858;25.974;2023-02-15T11:13:26;27.95;;;18.35;;
42168;SDS011;27838;43.858;25.974;2023-02-15T11:16:05;29.02;;;17.85;;
42168;SDS011;27838;43.858;25.974;2023-02-15T11:18:48;25.98;;;18.70;;
42168;SDS011;27838;43.858;25.974;2023-02-15T11:21:17;30.80;;;19.42;;
42168;SDS011;27838;43.858;25.974;2023-02-15T11:23:49;33.25;;;18.38;;
42168;SDS011;27838;43.858;25.974;2023-02-15T11:26:33;29.20;;;18.65;;
42168;SDS011;27838;43.858;25.974;2023-02-15T11:29:09;36.15;;;19.40;;
42168;SDS011;27838;43.858;25.974;2023-02-15T11:31:41;30.27;;;18.95;;
42168;SDS011;27838;43.858;25.974;2023-02-15T11:34:18;33.72;;;23.40;;
42168;SDS011;27838;43.858;25.974;2023-02-15T11:36:52;28.42;;;18.38;;
42168;SDS011;27838;43.858;25.974;2023-02-15T11:39:21;30.58;;;19.33;;
42168;SDS011;27838;43.858;25.974;2023-02-15T11:41:55;30.67;;;18.50;;
42168;SDS011;27838;43.858;25.974;2023-02-15T11:44:32;30.08;;;19.27;;
42168;SDS011;27838;43.858;25.974;2023-02-15T11:47:19;34.38;;;19.23;;
42168;SDS011;27838;43.858;25.974;2023-02-15T11:49:46;27.27;;;17.67;;
42168;SDS011;27838;43.858;25.974;2023-02-15T11:52:13;22.38;;;16.63;;
42168;SDS011;27838;43.858;25.974;2023-02-15T11:54:43;31.27;;;18.45;;
42168;SDS011;27838;43.858;25.974;2023-02-15T11:57:16;29.17;;;17.45;;
42168;SDS011;27838;43.858;25.974;2023-02-15T11:59:47;25.23;;;17.95;;
42168;SDS011;27838;43.858;25.974;2023-02-15T12:02:20;23.55;;;17.15;;
42168;SDS011;27838;43.858;25.974;2023-02-15T12:04:56;28.40;;;18.75;;
42168;SDS011;27838;43.858;25.974;2023-02-15T12:07:32;27.90;;;17.27;;
42168;SDS011;27838;43.858;25.974;2023-02-15T12:13:23;30.30;;;17.02;;
42168;SDS011;27838;43.858;25.974;2023-02-15T12:15:51;25.15;;;15.98;;
42168;SDS011;27838;43.858;25.974;2023-02-15T12:18:39;24.20;;;15.07;;
42168;SDS011;27838;43.858;25.974;2023-02-15T12:21:10;24.17;;;15.55;;
42168;SDS011;27838;43.858;25.974;2023-02-15T12:26:26;24.65;;;15.68;;
42168;SDS011;27838;43.858;25.974;2023-02-15T12:29:07;22.17;;;15.45;;
42168;SDS011;27838;43.858;25.974;2023-02-15T12:31:50;28.35;;;16.05;;
42168;SDS011;27838;43.858;25.974;2023-02-15T12:34:22;23.67;;;14.65;;
42168;SDS011;27838;43.858;25.974;2023-02-15T12:36:50;22.27;;;14.43;;
42168;SDS011;27838;43.858;25.974;2023-02-15T12:39:24;19.60;;;14.20;;
42168;SDS011;27838;43.858;25.974;2023-02-15T12:44:22;31.38;;;14.25;;
42168;SDS011;27838;43.858;25.974;2023-02-15T12:47:02;18.63;;;13.43;;
42168;SDS011;27838;43.858;25.974;2023-02-15T12:49:43;20.85;;;13.50;;
42168;SDS011;27838;43.858;25.974;2023-02-15T12:52:29;18.30;;;13.43;;
42168;SDS011;27838;43.858;25.974;2023-02-15T12:54:55;19.63;;;13.43;;
42168;SDS011;27838;43.858;25.974;2023-02-15T12:58:12;21.10;;;14.38;;
42168;SDS011;27838;43.858;25.974;2023-02-15T13:00:47;23.40;;;13.53;;
42168;SDS011;27838;43.858;25.974;2023-02-15T13:03:18;22.92;;;12.90;;
42168;SDS011;27838;43.858;25.974;2023-02-15T13:05:53;19.20;;;12.73;;
42168;SDS011;27838;43.858;25.974;2023-02-15T13:08:30;16.83;;;12.52;;
42168;SDS011;27838;43.858;25.974;2023-02-15T13:11:03;25.80;;;13.30;;
42168;SDS011;27838;43.858;25.974;2023-02-15T13:13:31;22.80;;;13.27;;
42168;SDS011;27838;43.858;25.974;2023-02-15T13:16:10;27.65;;;13.45;;
42168;SDS011;27838;43.858;25.974;2023-02-15T13:18:43;22.40;;;14.10;;
42168;SDS011;27838;43.858;25.974;2023-02-15T13:23:42;19.85;;;12.95;;
42168;SDS011;27838;43.858;25.974;2023-02-15T13:26:15;20.27;;;13.65;;
42168;SDS011;27838;43.858;25.974;2023-02-15T13:28:48;23.70;;;13.02;;
42168;SDS011;27838;43.858;25.974;2023-02-15T13:31:19;29.20;;;13.52;;
42168;SDS011;27838;43.858;25.974;2023-02-15T13:33:51;26.23;;;13.63;;
42168;SDS011;27838;43.858;25.974;2023-02-15T13:36:23;30.55;;;13.88;;
42168;SDS011;27838;43.858;25.974;2023-02-15T13:42:30;26.35;;;13.95;;
42168;SDS011;27838;43.858;25.974;2023-02-15T13:55:40;38.92;;;25.80;;
42168;SDS011;27838;43.858;25.974;2023-02-15T14:00:59;29.38;;;16.20;;
42168;SDS011;27838;43.858;25.974;2023-02-15T14:06:33;31.73;;;19.30;;
42168;SDS011;27838;43.858;25.974;2023-02-15T14:20:20;25.30;;;14.18;;
42168;SDS011;27838;43.858;25.974;2023-02-15T14:22:51;25.65;;;13.85;;
42168;SDS011;27838;43.858;25.974;2023-02-15T14:27:59;23.83;;;13.30;;
42168;SDS011;27838;43.858;25.974;2023-02-15T14:30:39;21.55;;;13.50;;
42168;SDS011;27838;43.858;25.974;2023-02-15T14:35:41;20.30;;;14.10;;
42168;SDS011;27838;43.858;25.974;2023-02-15T14:40:49;24.38;;;14.48;;
42168;SDS011;27838;43.858;25.974;2023-02-15T14:57:20;26.13;;;14.18;;
42168;SDS011;27838;43.858;25.974;2023-02-15T15:02:16;30.75;;;14.27;;
42168;SDS011;27838;43.858;25.974;2023-02-15T15:10:38;28.05;;;14.48;;
42168;SDS011;27838;43.858;25.974;2023-02-15T15:15:56;30.52;;;15.38;;
42168;SDS011;27838;43.858;25.974;2023-02-15T15:19:56;27.77;;;15.07;;
42168;SDS011;27838;43.858;25.974;2023-02-15T15:22:18;30.02;;;15.70;;
42168;SDS011;27838;43.858;25.974;2023-02-15T15:24:50;36.75;;;16.63;;
42168;SDS011;27838;43.858;25.974;2023-02-15T15:27:44;40.95;;;15.57;;
42168;SDS011;27838;43.858;25.974;2023-02-15T15:49:42;33.25;;;17.42;;
42168;SDS011;27838;43.858;25.974;2023-02-15T15:52:16;45.35;;;17.15;;
42168;SDS011;27838;43.858;25.974;2023-02-15T15:54:44;31.45;;;15.45;;
42168;SDS011;27838;43.858;25.974;2023-02-15T15:57:35;29.17;;;15.10;;
42168;SDS011;27838;43.858;25.974;2023-02-15T16:00:04;61.75;;;17.13;;
42168;SDS011;27838;43.858;25.974;2023-02-15T16:03:12;30.38;;;14.68;;
42168;SDS011;27838;43.858;25.974;2023-02-15T16:05:47;46.05;;;16.75;;
42168;SDS011;27838;43.858;25.974;2023-02-15T16:08:28;40.35;;;16.40;;
42168;SDS011;27838;43.858;25.974;2023-02-15T16:10:56;33.67;;;15.63;;
42168;SDS011;27838;43.858;25.974;2023-02-15T16:13:24;48.65;;;18.35;;
42168;SDS011;27838;43.858;25.974;2023-02-15T16:15:52;73.18;;;21.65;;
42168;SDS011;27838;43.858;25.974;2023-02-15T16:18:22;53.47;;;19.40;;
42168;SDS011;27838;43.858;25.974;2023-02-15T16:20:57;48.92;;;20.17;;
42168;SDS011;27838;43.858;25.974;2023-02-15T16:28:56;55.20;;;21.65;;
42168;SDS011;27838;43.858;25.974;2023-02-15T16:31:22;52.88;;;20.60;;
42168;SDS011;27838;43.858;25.974;2023-02-15T16:33:51;74.28;;;43.63;;
42168;SDS011;27838;43.858;25.974;2023-02-15T16:36:26;50.00;;;28.63;;
42168;SDS011;27838;43.858;25.974;2023-02-15T16:41:21;49.88;;;24.30;;
42168;SDS011;27838;43.858;25.974;2023-02-15T16:43:49;45.63;;;23.05;;
42168;SDS011;27838;43.858;25.974;2023-02-15T16:46:38;51.13;;;23.27;;
42168;SDS011;27838;43.858;25.974;2023-02-15T16:49:17;44.40;;;23.83;;
42168;SDS011;27838;43.858;25.974;2023-02-15T16:51:56;54.67;;;27.45;;
42168;SDS011;27838;43.858;25.974;2023-02-15T16:54:32;44.15;;;24.10;;
42168;SDS011;27838;43.858;25.974;2023-02-15T16:57:00;53.75;;;26.33;;
42168;SDS011;27838;43.858;25.974;2023-02-15T16:59:36;49.20;;;24.25;;
42168;SDS011;27838;43.858;25.974;2023-02-15T17:02:18;42.92;;;23.55;;
42168;SDS011;27838;43.858;25.974;2023-02-15T17:05:02;54.38;;;24.65;;
42168;SDS011;27838;43.858;25.974;2023-02-15T17:07:32;51.42;;;22.20;;
42168;SDS011;27838;43.858;25.974;2023-02-15T17:09:58;41.92;;;22.10;;
42168;SDS011;27838;43.858;25.974;2023-02-15T17:12:44;43.30;;;21.55;;
42168;SDS011;27838;43.858;25.974;2023-02-15T17:18:08;46.80;;;23.30;;
42168;SDS011;27838;43.858;25.974;2023-02-15T17:20:37;36.17;;;20.88;;
42168;SDS011;27838;43.858;25.974;2023-02-15T17:25:58;47.42;;;20.10;;
42168;SDS011;27838;43.858;25.974;2023-02-15T17:28:28;35.45;;;19.50;;
42168;SDS011;27838;43.858;25.974;2023-02-15T17:30:57;42.92;;;20.88;;
42168;SDS011;27838;43.858;25.974;2023-02-15T17:38:30;43.00;;;22.60;;
42168;SDS011;27838;43.858;25.974;2023-02-15T17:40:57;56.25;;;27.45;;
42168;SDS011;27838;43.858;25.974;2023-02-15T17:43:24;44.00;;;22.02;;
42168;SDS011;27838;43.858;25.974;2023-02-15T17:45:51;40.22;;;23.17;;
42168;SDS011;27838;43.858;25.974;2023-02-15T17:51:10;47.25;;;27.05;;
42168;SDS011;27838;43.858;25.974;2023-02-15T17:53:39;48.83;;;25.90;;
42168;SDS011;27838;43.858;25.974;2023-02-15T17:56:26;54.33;;;26.23;;
42168;SDS011;27838;43.858;25.974;2023-02-15T17:58:52;47.35;;;25.58;;
42168;SDS011;27838;43.858;25.974;2023-02-15T18:01:18;43.90;;;25.35;;
42168;SDS011;27838;43.858;25.974;2023-02-15T18:04:04;52.08;;;25.60;;
42168;SDS011;27838;43.858;25.974;2023-02-15T18:06:53;40.58;;;23.05;;
42168;SDS011;27838;43.858;25.974;2023-02-15T18:09:37;50.83;;;26.98;;